Latest Weather Observations for Mandurah

IDW60801

Issued at 8:03 am WST Monday 26 September 2016 (issued every 30 minutes, with the page automatically refreshed every 10 minutes)

About weather observations | Map of weather stations | Latest weather observations for WA | Other Formats
Station Details ID: 009977 Name: MANDURAH Lat: -32.52 Lon: 115.71 Height: 3.0 m
Data from the previous 72 hours. | See also: Recent months at Mandurah
Date/Time
WST
Temp
°C
App
Temp
°C
Dew
Point
°C
Rel
Hum
%
Delta-T
°C
Wind Press
QNH
hPa
Press
MSL
hPa
Rain since
9am
mm
Dir  Spd
km/h
Gust
km/h
Spd
kts
Gust
kts
26/08:00am 15.0 10.8 7.3 60 3.8 W 19 28 10 15 1019.9 1019.9 0.0
26/07:30am 14.6 10.2 7.2 61 3.6 W 20 28 11 15 1019.8 1019.8 0.0
26/07:00am 14.2 10.0 7.3 63 3.4 W 19 33 10 18 1019.7 1019.7 0.0
26/06:30am 14.3 9.4 7.1 62 3.5 WNW 22 28 12 15 1019.6 1019.6 0.0
26/06:00am 13.7 10.7 7.5 66 3.0 W 13 17 7 9 1019.3 1019.3 0.0
26/05:30am 13.5 9.6 7.3 66 3.0 W 17 20 9 11 1019.3 1019.3 0.0
26/05:00am 13.2 10.0 7.0 66 3.0 W 13 20 7 11 1019.3 1019.3 0.0
26/04:30am 12.5 10.1 7.0 69 2.6 WSW 9 17 5 9 1019.3 1019.3 0.0
26/04:00am 10.4 9.0 7.3 81 1.5 SW 4 9 2 5 1019.5 1019.5 0.0
26/03:30am 9.5 8.3 6.6 82 1.4 E 2 6 1 3 1019.6 1019.6 0.0
26/03:00am 9.1 8.1 5.8 80 1.5 CALM 0 0 0 0 1019.8 1019.8 0.0
26/02:30am 9.0 7.6 5.4 78 1.6 E 2 4 1 2 1019.6 1019.6 0.0
26/02:00am 9.1 7.7 5.3 77 1.7 ESE 2 4 1 2 1019.8 1019.8 0.0
26/01:30am 9.2 7.7 5.2 76 1.8 ESE 2 6 1 3 1020.1 1020.1 0.0
26/01:00am 9.4 7.2 5.2 75 1.9 ESE 6 7 3 4 1020.1 1020.1 0.0
26/12:30am 9.6 7.7 5.0 73 2.1 ESE 4 7 2 4 1020.2 1020.2 0.0
26/12:00am 10.3 8.5 5.3 71 2.3 SE 4 6 2 3 1020.7 1020.7 0.0
 
Date/Time
WST
Temp
°C
App
Temp
°C
Dew
Point
°C
Rel
Hum
%
Delta-T
°C
Wind Press
QNH
hPa
Press
MSL
hPa
Rain since
9am
mm
Dir  Spd
km/h
Gust
km/h
Spd
kts
Gust
kts
25/11:30pm 11.9 10.3 6.2 68 2.7 S 4 7 2 4 1020.8 1020.8 0.0
25/11:00pm 11.8 9.7 5.9 67 2.7 S 6 7 3 4 1021.0 1021.0 0.0
25/10:30pm 12.1 10.4 5.9 66 2.9 SSW 4 6 2 3 1020.8 1020.8 0.0
25/10:00pm 12.3 10.0 5.9 65 3.0 SSW 7 11 4 6 1021.0 1021.0 0.0
25/09:30pm 12.6 10.4 6.0 64 3.1 SSW 7 13 4 7 1021.0 1021.0 0.0
25/09:00pm 12.8 10.2 5.9 63 3.2 SSW 9 17 5 9 1021.1 1021.1 0.0
25/08:30pm 12.8 10.2 5.9 63 3.2 SSW 9 17 5 9 1021.0 1021.0 0.0
25/08:00pm 12.8 10.2 5.9 63 3.2 SSW 9 15 5 8 1020.9 1020.9 0.0
25/07:30pm 12.9 9.8 5.6 61 3.4 SSW 11 17 6 9 1020.6 1020.6 0.0
25/07:00pm 13.2 9.7 5.4 59 3.6 SSW 13 20 7 11 1020.3 1020.3 0.0
25/06:30pm 13.3 9.6 4.7 56 4.0 SSW 13 19 7 10 1020.0 1020.0 0.0
25/06:00pm 13.8 9.2 3.9 51 4.5 SSW 17 28 9 15 1019.8 1019.8 0.0
25/05:30pm 14.3 9.5 2.5 45 5.2 SSW 17 24 9 13 1019.4 1019.4 0.0
25/05:00pm 15.0 10.2 2.5 43 5.5 SSW 17 28 9 15 1019.2 1019.2 0.0
25/04:30pm 15.1 11.0 2.3 42 5.7 SSW 13 22 7 12 1019.0 1019.0 0.0
25/04:00pm 15.1 10.0 3.3 45 5.3 SSW 19 28 10 15 1018.7 1018.7 0.0
25/03:30pm 15.1 10.1 3.6 46 5.2 SSW 19 30 10 16 1018.5 1018.5 0.0
25/03:00pm 15.6 10.7 4.0 46 5.3 SW 19 26 10 14 1018.2 1018.2 0.0
25/02:30pm 15.7 11.1 3.8 45 5.5 SSW 17 26 9 14 1018.1 1018.1 0.0
25/02:00pm 15.2 11.2 3.0 44 5.5 S 13 26 7 14 1018.1 1018.1 0.0
25/01:30pm 15.3 10.6 1.1 38 6.2 SSE 15 24 8 13 1018.2 1018.2 0.0
25/01:00pm 15.2 10.6 1.4 39 6.0 SSE 15 22 8 12 1018.4 1018.4 0.0
25/12:30pm 14.6 9.6 1.2 40 5.8 SSE 17 30 9 16 1018.7 1018.7 0.0
25/12:00pm 14.4 9.4 1.3 41 5.6 SSE 17 28 9 15 1019.0 1019.0 0.0
25/11:30am 14.1 8.7 1.1 41 5.6 SSE 19 30 10 16 1019.1 1019.1 0.0
25/11:00am 13.4 7.8 1.1 43 5.2 SSE 20 32 11 17 1019.1 1019.1 0.0
25/10:30am 13.0 7.8 2.3 48 4.7 SSE 19 30 10 16 1019.2 1019.2 0.0
25/10:00am 12.5 7.3 3.5 54 4.0 SSE 20 32 11 17 1018.9 1018.9 0.0
25/09:30am 12.2 6.6 3.7 56 3.8 SSE 22 37 12 20 1018.9 1018.9 0.0
25/09:00am 11.8 6.5 5.0 63 3.1 SSE 22 37 12 20 1018.6 1018.6 5.2
25/08:30am 11.4 6.5 5.3 66 2.8 SSE 20 33 11 18 1018.3 1018.3 5.2
25/08:00am 11.0 5.9 6.0 71 2.3 SSE 22 33 12 18 1018.0 1018.0 5.2
25/07:30am 10.6 6.2 6.7 77 1.8 SSE 19 30 10 16 1017.7 1017.7 5.2
25/07:00am 10.6 6.8 7.5 81 1.5 SSE 17 24 9 13 1017.2 1017.2 5.2
25/06:30am 10.8 6.5 7.9 82 1.4 SSE 20 30 11 16 1016.6 1016.6 5.2
25/06:00am 10.8 6.7 8.6 86 1.1 SSE 20 32 11 17 1015.9 1015.9 5.2
25/05:30am 10.5 5.5 9.6 94 0.5 S 26 41 14 22 1015.6 1015.6 5.2
25/05:00am 10.6 6.2 10.4 99 0.1 SSE 24 39 13 21 1015.1 1015.1 5.2
25/04:54am 10.7 5.6 10.5 99 0.1 SSE 28 39 15 21 1015.0 1015.0 5.2
25/04:30am 11.4 10.5 11.2 99 0.1 W 7 13 4 7 1014.5 1014.5 5.2
25/04:00am 11.5 9.8 11.3 99 0.1 NNE 11 15 6 8 1013.9 1013.9 3.2
25/03:30am 11.1 9.3 10.9 99 0.1 NNE 11 13 6 7 1014.0 1014.0 3.0
25/03:00am 11.2 9.8 11.0 99 0.1 NE 9 15 5 8 1014.0 1014.0 2.8
25/02:30am 10.7 10.4 10.1 96 0.3 E 2 7 1 4 1013.9 1013.9 2.8
25/02:00am 10.8 10.1 9.9 94 0.5 E 4 6 2 3 1013.7 1013.7 2.8
25/01:30am 11.2 9.9 10.1 93 0.6 ESE 7 11 4 6 1014.1 1014.1 2.8
25/01:00am 11.4 10.1 10.0 91 0.7 ESE 7 13 4 7 1013.9 1013.9 2.8
25/12:30am 12.4 11.3 10.8 90 0.8 SE 7 13 4 7 1014.1 1014.1 2.8
25/12:00am 12.2 10.7 10.6 90 0.8 WNW 9 32 5 17 1014.1 1014.1 2.8
 
Date/Time
WST
Temp
°C
App
Temp
°C
Dew
Point
°C
Rel
Hum
%
Delta-T
°C
Wind Press
QNH
hPa
Press
MSL
hPa
Rain since
9am
mm
Dir  Spd
km/h
Gust
km/h
Spd
kts
Gust
kts
24/11:30pm 12.6 10.8 10.8 89 0.9 NNE 11 13 6 7 1014.1 1014.1 2.8
24/11:00pm 12.9 10.6 10.4 85 1.3 N 13 15 7 8 1014.0 1014.0 2.8
24/10:30pm 13.1 10.7 9.9 81 1.6 NNW 13 17 7 9 1014.2 1014.2 2.8
24/10:00pm 12.7 10.4 9.0 78 1.9 NW 11 13 6 7 1014.4 1014.4 2.8
24/09:30pm 12.5 8.8 10.2 86 1.2 NW 20 26 11 14 1014.5 1014.5 2.8
24/09:00pm 13.9 10.1 9.7 76 2.2 NW 20 24 11 13 1014.6 1014.6 1.0
24/08:30pm 13.2 11.2 10.0 81 1.6 WNW 11 17 6 9 1014.7 1014.7 1.0
24/08:00pm 12.5 7.5 9.5 82 1.5 NW 26 33 14 18 1014.6 1014.6 1.0
24/07:39pm 14.1 10.4 9.3 73 2.4 NW 19 39 10 21 1014.5 1014.5 0.2
24/07:30pm 14.0 10.8 8.6 70 2.7 NNW 15 17 8 9 1014.4 1014.4 0.2
24/07:00pm 12.8 11.3 9.3 79 1.8 NE 7 9 4 5 1014.4 1014.4 0.2
24/06:30pm 12.8 11.4 8.7 76 2.0 NNE 6 9 3 5 1014.3 1014.3 0.2
24/06:00pm 12.8 12.4 8.3 74 2.2 CALM 0 0 0 0 1014.3 1014.3 0.2
24/05:30pm 13.4 12.8 8.9 74 2.3 WNW 2 6 1 3 1014.3 1014.3 0.2
24/05:00pm 13.9 10.6 7.9 67 3.0 WNW 15 32 8 17 1014.3 1014.3 0.0
24/04:30pm 14.4 11.8 7.9 65 3.2 WNW 11 15 6 8 1014.2 1014.2 0.0
24/04:00pm 14.6 13.1 9.2 70 2.8 NW 7 11 4 6 1014.2 1014.2 0.0
24/03:30pm 13.8 11.7 9.8 77 2.1 NNW 11 13 6 7 1014.2 1014.2 0.0
24/03:00pm 14.2 12.2 8.6 69 2.8 N 9 13 5 7 1014.5 1014.5 0.0
24/02:30pm 14.5 12.7 9.3 71 2.7 N 9 15 5 8 1014.7 1014.7 0.0
24/02:00pm 13.2 10.5 9.1 76 2.1 NNW 13 17 7 9 1015.0 1015.0 0.0
24/01:30pm 13.8 9.6 8.2 69 2.8 N 20 28 11 15 1015.3 1015.3 0.0
24/01:00pm 14.5 10.6 7.1 61 3.6 NNW 17 20 9 11 1015.7 1015.7 0.0
24/12:30pm 15.0 11.9 7.3 60 3.8 N 13 17 7 9 1016.1 1016.1 0.0
24/12:00pm 14.4 11.0 7.5 63 3.4 N 15 20 8 11 1016.5 1016.5 0.0
24/11:30am 12.7 7.9 7.4 70 2.6 NNW 22 32 12 17 1017.0 1017.0 0.0
24/11:00am 13.2 8.9 7.2 67 2.9 NNW 19 26 10 14 1017.3 1017.3 0.0
24/10:30am 13.2 8.7 7.0 66 3.0 N 20 26 11 14 1017.4 1017.4 0.0
24/10:00am 13.2 8.9 6.8 65 3.1 N 19 24 10 13 1017.6 1017.6 0.0
24/09:30am 12.7 8.7 6.5 66 3.0 N 17 20 9 11 1017.7 1017.7 0.0
24/09:00am 11.7 7.5 5.6 66 2.8 NNE 17 20 9 11 1017.8 1017.8 0.6
24/08:30am 11.1 7.7 6.0 71 2.4 NNE 13 19 7 10 1017.8 1017.8 0.6
24/08:00am 9.6 7.0 6.0 78 1.7 NE 9 11 5 6 1017.7 1017.7 0.6
24/07:30am 8.1 5.8 5.0 81 1.4 ENE 6 9 3 5 1017.5 1017.5 0.6
24/07:00am 7.5 5.0 4.6 82 1.3 ENE 7 13 4 7 1017.5 1017.5 0.6
24/06:30am 7.2 4.7 4.0 80 1.4 E 6 9 3 5 1017.4 1017.4 0.6
24/06:00am 8.0 5.5 4.9 81 1.4 ENE 7 11 4 6 1017.3 1017.3 0.6
24/05:30am 9.2 6.2 5.8 79 1.6 NNE 11 17 6 9 1017.1 1017.1 0.6
24/05:00am 8.8 6.1 5.4 79 1.5 NNE 9 13 5 7 1017.0 1017.0 0.6
24/04:30am 8.4 6.1 4.8 78 1.6 NE 6 9 3 5 1016.8 1016.8 0.6
24/04:00am 8.4 6.5 5.0 79 1.5 NE 4 6 2 3 1016.9 1016.9 0.6
24/03:30am 7.8 5.8 4.2 78 1.6 NE 4 7 2 4 1016.8 1016.8 0.6
24/03:00am 7.7 5.3 4.1 78 1.6 ENE 6 9 3 5 1016.5 1016.5 0.6
24/02:30am 8.8 5.9 4.8 76 1.8 NE 9 11 5 6 1016.8 1016.8 0.6
24/02:00am 8.5 6.1 4.3 75 1.8 NE 6 9 3 5 1016.9 1016.9 0.6
24/01:30am 8.3 6.2 3.8 73 1.9 ENE 4 6 2 3 1016.8 1016.8 0.6
24/01:00am 8.7 6.6 4.1 73 2.0 ENE 4 6 2 3 1016.9 1016.9 0.6
24/12:30am 9.1 7.4 4.1 71 2.2 ENE 2 4 1 2 1017.1 1017.1 0.6
24/12:00am 9.9 8.0 5.1 72 2.2 ESE 4 7 2 4 1017.3 1017.3 0.6
 
Date/Time
WST
Temp
°C
App
Temp
°C
Dew
Point
°C
Rel
Hum
%
Delta-T
°C
Wind Press
QNH
hPa
Press
MSL
hPa
Rain since
9am
mm
Dir  Spd
km/h
Gust
km/h
Spd
kts
Gust
kts
23/11:30pm 9.8 8.0 5.2 73 2.1 SW 4 7 2 4 1017.8 1017.8 0.6
23/11:00pm 9.5 7.6 4.7 72 2.1 SE 4 6 2 3 1017.9 1017.9 0.6
23/10:30pm 9.4 7.4 4.4 71 2.2 SE 4 7 2 4 1018.0 1018.0 0.6
23/10:00pm 9.7 7.2 4.7 71 2.2 SE 7 9 4 5 1018.1 1018.1 0.6
23/09:30pm 10.3 7.9 5.1 70 2.4 SE 7 11 4 6 1018.2 1018.2 0.6
23/09:00pm 10.8 6.5 5.3 69 2.5 SE 17 24 9 13 1018.0 1018.0 0.6
23/08:30pm 11.4 7.4 4.8 64 3.0 S 15 22 8 12 1018.1 1018.1 0.6
23/08:00pm 11.4 8.9 4.8 64 3.0 S 7 11 4 6 1017.7 1017.7 0.6
23/07:30pm 11.7 8.1 5.1 64 3.0 S 13 20 7 11 1017.4 1017.4 0.6
23/07:00pm 11.7 7.6 4.4 61 3.3 S 15 22 8 12 1017.1 1017.1 0.6
23/06:30pm 11.5 7.4 4.5 62 3.2 S 15 30 8 16 1016.9 1016.9 0.6
23/06:00pm 12.2 8.1 4.4 59 3.5 SSW 15 24 8 13 1016.6 1016.6 0.6
23/05:30pm 12.7 7.9 4.7 58 3.7 SSW 19 28 10 15 1016.4 1016.4 0.6
23/05:00pm 12.5 8.9 5.2 61 3.4 S 13 20 7 11 1016.3 1016.3 0.6
23/04:30pm 13.3 8.9 4.5 55 4.0 SSE 17 26 9 14 1016.0 1016.0 0.6
23/04:00pm 13.8 8.6 2.7 47 4.9 SSW 19 30 10 16 1015.7 1015.7 0.6
23/03:30pm 13.2 8.1 4.1 54 4.1 S 20 37 11 20 1015.5 1015.5 0.6
23/03:00pm 14.1 8.0 3.0 47 5.0 SW 24 35 13 19 1015.3 1015.3 0.6
23/02:30pm 13.4 8.6 4.6 55 4.0 SSW 19 28 10 15 1015.2 1015.2 0.6
23/02:00pm 13.5 8.4 3.3 50 4.6 SSW 19 32 10 17 1015.3 1015.3 0.6
23/01:30pm 12.4 6.9 5.8 64 3.1 SW 24 37 13 20 1015.5 1015.5 0.6
23/01:00pm 11.4 7.1 5.3 66 2.8 SSW 17 24 9 13 1015.3 1015.3 0.6
23/12:42pm 11.1 4.3 5.2 67 2.7 SSW 30 50 16 27 1015.7 1015.7 0.2
23/12:30pm 13.1 7.3 4.5 56 3.9 SSW 24 46 13 25 1015.5 1015.5 0.2
23/12:29pm 13.6 8.6 4.5 54 4.2 SSW 20 44 11 24 1015.4 1015.4 0.2
23/12:00pm 13.6 9.5 4.5 54 4.2 SSW 15 24 8 13 1015.5 1015.5 0.2
23/11:30am 12.4 7.4 4.6 59 3.6 SSW 20 33 11 18 1015.6 1015.6 0.2
23/11:00am 13.0 10.6 7.0 67 2.9 SW 9 19 5 10 1015.7 1015.7 0.2
23/10:30am 11.5 5.5 5.2 65 2.9 SW 26 43 14 23 1016.1 1016.1 0.0
23/10:00am 13.1 7.9 3.5 52 4.3 SSW 20 35 11 19 1015.7 1015.7 0.0
23/09:30am 12.7 7.9 4.7 58 3.7 S 19 28 10 15 1015.5 1015.5 0.0
23/09:00am 11.5 8.3 6.8 73 2.2 S 13 22 7 12 1015.5 1015.5 10.0
23/08:30am 10.5 4.2 5.7 72 2.2 S 28 44 15 24 1015.3 1015.3 10.0

Other Formats:

Comma delimited format used in spreadsheet applications
http://www.bom.gov.au/fwo/IDW60801/IDW60801.94605.axf

JavaScript Object Notation format (JSON) in row-major order
http://www.bom.gov.au/fwo/IDW60801/IDW60801.94605.json